Time;durP1;ratioP1;P1;durP2;ratioP2;P2;SDS_P1;SDS_P2;PMS_P1;PMS_P2;Temp;Humidity;BMP_temperature;BMP_pressure;BME280_temperature;BME280_humidity;BME280_pressure;Samples;Min_cycle;Max_cycle;Signal;HPM_P1;HPM_P2
2020/12/29 00:00:20;;;;;;;36.33;23.42;;;7.50;99.90;;;;;;6213647;23;20027;-84
2020/12/29 00:02:50;;;;;;;41.08;25.55;;;7.70;99.90;;;;;;6213657;23;20008;-85
2020/12/29 00:05:16;;;;;;;39.78;24.45;;;7.70;99.90;;;;;;6186928;23;20078;-83
2020/12/29 00:07:53;;;;;;;38.65;23.92;;;7.50;99.90;;;;;;6187355;23;20008;-87
2020/12/29 00:10:20;;;;;;;37.58;24.30;;;7.70;99.90;;;;;;6214211;23;20000;-84
2020/12/29 00:12:47;;;;;;;35.45;22.42;;;7.80;99.90;;;;;;6187992;23;20023;-85
2020/12/29 00:15:13;;;;;;;40.03;22.48;;;7.80;99.90;;;;;;6213997;23;20051;-85
2020/12/29 00:17:39;;;;;;;36.88;21.30;;;7.80;99.90;;;;;;6187471;23;20004;-85
2020/12/29 00:20:05;;;;;;;35.90;19.60;;;7.90;99.90;;;;;;6186997;23;20378;-81
2020/12/29 00:22:32;;;;;;;34.28;20.35;;;7.70;99.90;;;;;;6186667;23;20024;-80
2020/12/29 00:25:05;;;;;;;28.25;18.45;;;7.70;99.90;;;;;;6186872;23;20238;-80
2020/12/29 00:27:31;;;;;;;30.60;19.73;;;7.70;99.90;;;;;;6213964;23;20007;-83
2020/12/29 00:29:57;;;;;;;30.80;18.90;;;7.70;99.90;;;;;;6187472;23;20375;-85
2020/12/29 00:32:23;;;;;;;34.47;19.38;;;7.60;99.90;;;;;;6187766;23;20017;-81
2020/12/29 00:34:49;;;;;;;28.75;17.98;;;7.70;99.90;;;;;;6216267;23;20300;-87
2020/12/29 00:37:15;;;;;;;21.23;15.60;;;7.70;99.90;;;;;;6190223;23;20059;-85
2020/12/29 00:39:43;;;;;;;17.30;11.27;;;7.90;99.90;;;;;;6188653;23;20001;-84
2020/12/29 00:42:09;;;;;;;13.98;10.25;;;8.10;99.90;;;;;;6189665;23;20043;-84
2020/12/29 00:44:35;;;;;;;20.90;12.05;;;8.50;99.90;;;;;;6215892;23;20431;-82
2020/12/29 00:47:00;;;;;;;18.48;12.60;;;8.40;99.90;;;;;;6189902;23;20083;-82
2020/12/29 00:49:26;;;;;;;9.65;6.88;;;8.40;99.90;;;;;;6216067;23;20001;-84
2020/12/29 00:51:53;;;;;;;18.38;10.85;;;8.60;99.90;;;;;;6189721;23;20016;-85
2020/12/29 00:54:20;;;;;;;20.55;11.90;;;8.70;99.90;;;;;;6189659;23;20011;-87
2020/12/29 00:56:46;;;;;;;21.25;12.70;;;8.50;99.90;;;;;;6189683;23;20012;-85
2020/12/29 00:59:12;;;;;;;24.55;14.98;;;8.30;99.90;;;;;;6189423;23;20011;-84
2020/12/29 01:01:39;;;;;;;22.48;14.10;;;8.20;99.90;;;;;;6215839;23;20028;-83
2020/12/29 01:04:05;;;;;;;21.45;12.63;;;8.10;99.90;;;;;;6215864;23;19993;-84
2020/12/29 01:06:31;;;;;;;22.33;14.35;;;8.30;99.90;;;;;;6215850;23;20334;-83
2020/12/29 01:08:57;;;;;;;29.17;19.45;;;8.30;99.90;;;;;;6189131;23;20411;-83
2020/12/29 01:11:23;;;;;;;33.15;18.85;;;7.60;99.90;;;;;;6189314;23;20095;-84
2020/12/29 01:13:49;;;;;;;29.92;19.70;;;7.70;99.90;;;;;;6216190;23;20028;-84
2020/12/29 01:16:14;;;;;;;33.83;21.55;;;7.80;99.90;;;;;;6215660;23;20000;-85
2020/12/29 01:18:40;;;;;;;29.67;20.20;;;7.30;99.90;;;;;;6215661;23;20019;-85
2020/12/29 01:21:10;;;;;;;27.60;19.27;;;7.50;99.90;;;;;;6189289;23;20076;-85
2020/12/29 01:23:36;;;;;;;23.63;16.50;;;7.60;99.90;;;;;;6188599;23;20020;-80
2020/12/29 01:26:03;;;;;;;35.92;19.40;;;7.80;99.90;;;;;;6215647;23;20031;-83
2020/12/29 01:28:29;;;;;;;31.70;18.77;;;8.00;99.90;;;;;;6215801;23;20086;-82
2020/12/29 01:30:54;;;;;;;32.35;19.90;;;8.00;99.90;;;;;;6215629;23;20319;-78
2020/12/29 01:33:20;;;;;;;33.05;20.63;;;8.00;99.90;;;;;;6189182;23;20005;-83
2020/12/29 01:35:46;;;;;;;28.33;17.52;;;7.80;99.90;;;;;;6188997;23;20024;-84
2020/12/29 01:38:11;;;;;;;29.52;19.17;;;7.80;99.90;;;;;;6215172;23;20422;-79
2020/12/29 01:40:37;;;;;;;28.92;18.50;;;7.80;99.90;;;;;;6215384;23;20054;-78
2020/12/29 01:43:03;;;;;;;27.17;18.60;;;7.80;99.90;;;;;;6215556;23;19997;-80
2020/12/29 01:45:29;;;;;;;24.77;16.55;;;7.80;99.90;;;;;;6188738;23;20047;-83
2020/12/29 01:47:55;;;;;;;27.85;16.80;;;7.80;99.90;;;;;;6188876;23;20131;-84
2020/12/29 01:50:23;;;;;;;19.27;13.30;;;8.00;99.90;;;;;;6215158;23;20048;-84
2020/12/29 01:53:02;;;;;;;25.30;16.33;;;8.20;99.90;;;;;;6188679;23;20027;-84
2020/12/29 01:55:29;;;;;;;15.77;10.85;;;8.20;99.90;;;;;;6215032;22;20461;-79
2020/12/29 01:57:59;;;;;;;18.17;13.07;;;8.30;99.90;;;;;;6188526;23;20008;-82
2020/12/29 02:00:25;;;;;;;26.83;18.05;;;8.20;99.90;;;;;;6214982;23;20007;-82
2020/12/29 02:02:51;;;;;;;30.73;17.98;;;7.80;99.90;;;;;;6188799;23;20031;-82
2020/12/29 02:05:17;;;;;;;22.88;16.55;;;7.70;99.90;;;;;;6215274;23;19993;-83
2020/12/29 02:07:46;;;;;;;21.60;14.23;;;7.90;99.90;;;;;;6215170;23;20127;-84
2020/12/29 02:10:14;;;;;;;17.02;12.15;;;7.90;99.90;;;;;;6214942;23;20512;-82
2020/12/29 02:12:39;;;;;;;18.00;11.75;;;8.20;99.90;;;;;;6215652;23;20565;-83
2020/12/29 02:15:08;;;;;;;16.17;11.93;;;8.40;99.90;;;;;;6188157;23;20036;-84
2020/12/29 02:17:36;;;;;;;13.55;9.13;;;8.50;99.90;;;;;;6188502;23;20696;-83
2020/12/29 02:20:07;;;;;;;10.23;7.93;;;8.60;99.90;;;;;;6188008;23;19997;-82
2020/12/29 02:22:33;;;;;;;9.52;6.05;;;8.80;99.90;;;;;;6214371;23;20020;-82
2020/12/29 02:25:01;;;;;;;10.05;5.82;;;9.20;99.90;;;;;;6214737;23;20000;-77
2020/12/29 02:27:29;;;;;;;7.65;5.30;;;9.30;99.90;;;;;;6215264;23;20001;-81
2020/12/29 02:29:55;;;;;;;6.32;5.10;;;9.30;99.90;;;;;;6187974;23;20028;-82
2020/12/29 02:32:23;;;;;;;6.47;4.60;;;9.40;99.90;;;;;;6187946;23;20028;-81
2020/12/29 02:34:49;;;;;;;8.50;4.43;;;9.60;99.90;;;;;;6214821;23;19996;-80
2020/12/29 02:37:15;;;;;;;9.63;5.90;;;9.50;99.90;;;;;;6188130;23;20000;-82
2020/12/29 02:39:44;;;;;;;8.43;5.65;;;9.40;99.90;;;;;;6188130;23;20043;-82
2020/12/29 02:42:10;;;;;;;11.88;5.13;;;9.30;99.90;;;;;;6215317;23;19997;-82
2020/12/29 02:44:37;;;;;;;6.55;4.75;;;9.30;99.90;;;;;;6187921;23;20008;-81
2020/12/29 02:47:03;;;;;;;8.50;5.47;;;9.40;99.90;;;;;;6188152;23;20465;-82
2020/12/29 02:49:31;;;;;;;6.90;5.07;;;9.40;99.90;;;;;;6188197;23;20339;-78
2020/12/29 02:51:57;;;;;;;14.35;9.68;;;9.40;99.90;;;;;;6188506;23;20008;-84
2020/12/29 02:54:24;;;;;;;23.85;12.95;;;9.10;99.90;;;;;;6214638;23;20001;-84
2020/12/29 02:56:50;;;;;;;18.48;11.40;;;8.90;99.90;;;;;;6214372;23;20011;-83
2020/12/29 02:59:16;;;;;;;23.17;14.02;;;8.70;99.90;;;;;;6214606;23;19996;-83
2020/12/29 03:01:42;;;;;;;19.27;11.80;;;8.40;99.90;;;;;;6214562;23;20050;-83
2020/12/29 03:04:07;;;;;;;20.67;12.13;;;8.50;99.90;;;;;;6214519;23;20419;-83
2020/12/29 03:06:33;;;;;;;20.55;13.55;;;8.60;99.90;;;;;;6214450;23;20067;-83
2020/12/29 03:08:59;;;;;;;18.35;12.27;;;8.50;99.90;;;;;;6187658;23;20001;-84
2020/12/29 03:11:26;;;;;;;18.70;11.40;;;8.60;99.90;;;;;;6187340;23;20099;-82
2020/12/29 03:13:57;;;;;;;19.63;12.75;;;8.80;99.90;;;;;;6187618;23;20024;-82
2020/12/29 03:16:23;;;;;;;21.83;13.23;;;8.40;99.90;;;;;;6214082;23;20433;-81
2020/12/29 03:18:49;;;;;;;23.13;13.68;;;8.30;99.90;;;;;;6214427;23;20470;-86
2020/12/29 03:21:15;;;;;;;19.38;11.82;;;8.20;99.90;;;;;;6214066;23;20004;-80
2020/12/29 03:23:41;;;;;;;24.00;13.82;;;8.30;99.90;;;;;;6214010;23;20005;-83
2020/12/29 03:26:08;;;;;;;18.90;12.70;;;8.20;99.90;;;;;;6187562;23;20009;-84
2020/12/29 03:28:34;;;;;;;20.92;12.30;;;8.20;99.90;;;;;;6214017;23;20365;-81
2020/12/29 03:31:00;;;;;;;18.13;12.52;;;8.40;99.90;;;;;;6214277;23;20011;-85
2020/12/29 03:33:26;;;;;;;19.00;12.07;;;8.50;99.90;;;;;;6188566;23;20012;-86
2020/12/29 03:35:54;;;;;;;21.23;12.90;;;8.20;99.90;;;;;;6215173;23;20411;-86
2020/12/29 03:38:21;;;;;;;23.20;13.57;;;7.70;99.90;;;;;;6188178;23;20320;-86
2020/12/29 03:40:47;;;;;;;21.75;13.60;;;7.90;99.90;;;;;;6215117;23;19996;-85
2020/12/29 03:43:13;;;;;;;20.55;13.43;;;7.80;99.90;;;;;;6188633;23;20440;-84
2020/12/29 03:45:41;;;;;;;15.90;11.02;;;7.70;99.90;;;;;;6215161;23;20008;-85
2020/12/29 03:48:12;;;;;;;17.95;10.93;;;7.70;99.90;;;;;;6188075;23;20054;-83
2020/12/29 03:50:38;;;;;;;22.15;11.20;;;7.90;99.90;;;;;;6213827;23;19996;-85
2020/12/29 03:53:05;;;;;;;16.38;10.57;;;7.70;99.90;;;;;;6187992;23;20016;-85
2020/12/29 03:55:34;;;;;;;14.60;9.80;;;7.70;99.90;;;;;;6188247;23;20004;-81
2020/12/29 03:58:00;;;;;;;16.42;9.05;;;7.80;99.90;;;;;;6214667;23;20011;-85
2020/12/29 04:00:26;;;;;;;15.90;10.30;;;8.00;99.90;;;;;;6214494;23;19997;-84
2020/12/29 04:02:52;;;;;;;15.38;10.80;;;7.80;99.90;;;;;;6188034;23;20032;-82
2020/12/29 04:05:19;;;;;;;17.27;10.75;;;8.00;99.90;;;;;;6187604;23;20008;-82
2020/12/29 04:07:45;;;;;;;13.38;9.43;;;8.00;99.90;;;;;;6214246;23;20007;-86
2020/12/29 04:10:11;;;;;;;14.95;9.77;;;8.20;99.90;;;;;;6214523;23;20364;-83
2020/12/29 04:12:38;;;;;;;15.13;9.43;;;8.20;99.90;;;;;;6215299;23;20036;-83
2020/12/29 04:15:07;;;;;;;14.55;9.43;;;8.10;99.90;;;;;;6188560;23;20100;-85
2020/12/29 04:17:34;;;;;;;13.57;9.75;;;8.00;99.90;;;;;;6214338;23;20011;-82
2020/12/29 04:20:00;;;;;;;12.52;8.88;;;7.90;99.90;;;;;;6214045;23;20010;-84
2020/12/29 04:22:33;;;;;;;16.58;10.52;;;8.10;99.90;;;;;;6214316;23;20064;-85
2020/12/29 04:25:00;;;;;;;16.30;10.10;;;8.00;99.90;;;;;;6214411;23;20429;-83
2020/12/29 04:27:26;;;;;;;15.27;10.07;;;8.00;99.90;;;;;;6187523;23;20009;-80
2020/12/29 04:29:52;;;;;;;13.70;9.20;;;8.10;99.90;;;;;;6187680;23;20330;-83
2020/12/29 04:32:18;;;;;;;15.48;9.18;;;8.00;99.90;;;;;;6214030;23;20083;-83
2020/12/29 04:34:45;;;;;;;17.20;9.82;;;8.10;99.90;;;;;;6214059;23;20352;-82
2020/12/29 04:37:11;;;;;;;14.38;8.90;;;8.20;99.90;;;;;;6187118;23;20426;-83
2020/12/29 04:39:37;;;;;;;13.45;8.82;;;8.20;99.90;;;;;;6187233;23;20024;-83
2020/12/29 04:42:05;;;;;;;10.85;7.70;;;8.20;99.90;;;;;;6187353;23;20005;-82
2020/12/29 04:44:32;;;;;;;10.85;7.53;;;8.20;99.90;;;;;;6187264;23;20084;-82
2020/12/29 04:46:59;;;;;;;15.02;8.00;;;8.30;99.90;;;;;;6186993;23;20005;-82
2020/12/29 04:49:26;;;;;;;12.63;9.05;;;8.50;99.90;;;;;;6214140;23;20000;-81
2020/12/29 04:51:56;;;;;;;14.55;9.25;;;8.40;99.90;;;;;;6213588;23;20066;-81
2020/12/29 04:54:25;;;;;;;12.25;8.57;;;8.30;99.90;;;;;;6187269;23;20378;-83
2020/12/29 04:56:56;;;;;;;17.73;9.05;;;8.40;99.90;;;;;;6214059;23;20076;-79
2020/12/29 04:59:22;;;;;;;16.63;8.95;;;8.40;99.90;;;;;;6186955;23;20013;-83
2020/12/29 05:01:48;;;;;;;13.65;8.10;;;8.40;99.90;;;;;;6213824;23;20331;-82
2020/12/29 05:04:16;;;;;;;15.82;7.60;;;8.30;99.90;;;;;;6213925;23;20423;-82
2020/12/29 05:06:41;;;;;;;14.93;7.70;;;8.50;99.90;;;;;;6186960;23;20005;-78
2020/12/29 05:09:07;;;;;;;13.48;9.20;;;8.50;99.90;;;;;;6187152;23;20005;-84
2020/12/29 05:11:34;;;;;;;10.98;7.88;;;8.20;99.90;;;;;;6213855;23;20474;-82
2020/12/29 05:14:03;;;;;;;13.60;7.70;;;8.20;99.90;;;;;;6214002;23;20339;-81
2020/12/29 05:16:29;;;;;;;14.80;8.57;;;8.30;99.90;;;;;;6213615;23;20019;-84
2020/12/29 05:18:57;;;;;;;9.55;6.40;;;8.40;99.90;;;;;;6187621;23;20012;-80
2020/12/29 05:21:25;;;;;;;7.45;5.63;;;8.40;99.90;;;;;;6189493;22;20009;-82
2020/12/29 05:23:51;;;;;;;9.25;4.75;;;8.60;99.90;;;;;;6189436;23;20023;-84
2020/12/29 05:26:18;;;;;;;5.15;3.45;;;8.90;99.90;;;;;;6216292;23;20036;-84
2020/12/29 05:28:46;;;;;;;4.80;3.70;;;9.30;99.90;;;;;;6216026;23;20029;-84
2020/12/29 05:31:12;;;;;;;4.72;3.30;;;9.50;99.90;;;;;;6215129;23;20001;-82
2020/12/29 05:33:39;;;;;;;5.18;3.67;;;9.70;99.90;;;;;;6189147;23;20016;-83
2020/12/29 05:36:05;;;;;;;7.07;3.90;;;9.70;99.90;;;;;;6188620;23;20004;-83
2020/12/29 05:38:31;;;;;;;4.45;3.50;;;9.70;99.90;;;;;;6188793;23;20005;-86
2020/12/29 05:40:59;;;;;;;5.45;3.72;;;9.70;99.90;;;;;;6189232;23;20004;-82
2020/12/29 05:43:30;;;;;;;5.00;3.55;;;9.70;99.90;;;;;;6215600;23;20327;-84
2020/12/29 05:46:05;;;;;;;9.13;4.10;;;9.80;99.90;;;;;;6188674;23;20030;-81
2020/12/29 05:48:31;;;;;;;6.43;3.60;;;9.80;99.90;;;;;;6188633;23;20008;-82
2020/12/29 05:51:00;;;;;;;5.80;3.88;;;9.80;99.90;;;;;;6215384;23;20020;-84
2020/12/29 05:53:28;;;;;;;7.75;3.63;;;9.80;99.90;;;;;;6188685;23;20012;-83
2020/12/29 05:55:58;;;;;;;5.97;3.70;;;9.80;99.90;;;;;;6189106;23;20404;-82
2020/12/29 05:58:24;;;;;;;6.32;3.50;;;9.80;99.90;;;;;;6188968;23;20016;-86
2020/12/29 06:00:49;;;;;;;5.32;3.78;;;9.80;99.90;;;;;;6215458;23;19996;-85
2020/12/29 06:03:16;;;;;;;6.32;4.28;;;9.70;99.90;;;;;;6211893;23;20035;-80
2020/12/29 06:05:47;;;;;;;7.38;4.10;;;9.80;99.90;;;;;;6213874;23;20007;-80
2020/12/29 06:08:16;;;;;;;7.03;3.92;;;9.80;99.90;;;;;;6188999;23;20008;-84
2020/12/29 06:10:52;;;;;;;7.60;3.90;;;9.80;99.90;;;;;;6215450;23;20016;-84
2020/12/29 06:13:26;;;;;;;6.22;4.40;;;9.80;99.90;;;;;;6214213;23;20051;-81
2020/12/29 06:15:57;;;;;;;6.28;4.60;;;9.80;99.90;;;;;;6214824;23;20066;-79
2020/12/29 06:18:36;;;;;;;8.85;4.72;;;9.70;99.90;;;;;;6213997;23;20008;-79
2020/12/29 06:21:06;;;;;;;10.05;5.30;;;9.70;99.90;;;;;;6214369;23;20039;-80
2020/12/29 06:23:48;;;;;;;46.92;25.20;;;9.70;99.90;;;;;;6213908;23;20048;-81
2020/12/29 06:26:19;;;;;;;64.78;36.92;;;9.90;99.90;;;;;;6187888;23;20008;-79
2020/12/29 06:28:53;;;;;;;77.68;44.28;;;10.60;99.90;;;;;;6214111;23;20001;-81
2020/12/29 06:31:37;;;;;;;41.42;25.55;;;10.70;99.90;;;;;;6187443;23;20019;-79
2020/12/29 06:34:06;;;;;;;54.33;29.05;;;11.20;99.90;;;;;;6213586;23;20004;-80
2020/12/29 06:36:37;;;;;;;33.17;19.45;;;10.90;99.90;;;;;;6214554;23;20028;-80
2020/12/29 06:39:07;;;;;;;9.75;5.78;;;11.10;99.90;;;;;;6212928;23;19997;-81
2020/12/29 06:41:34;;;;;;;9.93;4.67;;;11.40;99.90;;;;;;6214348;23;20008;-80
2020/12/29 06:44:04;;;;;;;5.43;3.30;;;10.90;99.90;;;;;;6214325;23;20007;-80
2020/12/29 06:46:30;;;;;;;7.75;3.75;;;10.80;99.90;;;;;;6187566;23;20298;-82
2020/12/29 06:48:57;;;;;;;8.75;4.40;;;10.90;99.90;;;;;;6187122;23;20004;-80
2020/12/29 06:51:23;;;;;;;6.57;4.45;;;10.80;99.90;;;;;;6187410;23;20434;-80
2020/12/29 06:53:49;;;;;;;7.10;4.15;;;10.80;99.90;;;;;;6162596;23;20016;-79
2020/12/29 06:56:17;;;;;;;12.75;3.97;;;10.90;99.90;;;;;;6214186;23;20000;-82
2020/12/29 06:58:43;;;;;;;7.25;4.40;;;10.90;99.90;;;;;;6210087;23;20374;-81
2020/12/29 07:01:20;;;;;;;7.88;3.83;;;10.90;99.90;;;;;;6187385;23;20414;-84
2020/12/29 07:03:48;;;;;;;5.80;4.20;;;11.10;99.90;;;;;;6213436;23;20001;-84
2020/12/29 07:06:14;;;;;;;15.85;9.27;;;11.20;99.90;;;;;;6212449;23;20058;-81
2020/12/29 07:08:40;;;;;;;101.45;52.15;;;11.30;99.90;;;;;;6212415;23;20004;-85
2020/12/29 07:11:22;;;;;;;48.05;25.88;;;11.70;99.90;;;;;;6213855;22;20330;-81
2020/12/29 07:13:52;;;;;;;19.63;12.75;;;12.00;99.90;;;;;;6187056;23;20024;-82
2020/12/29 07:16:25;;;;;;;5.38;4.13;;;11.90;99.90;;;;;;6213764;23;19992;-83
2020/12/29 07:18:52;;;;;;;7.63;4.55;;;12.20;99.90;;;;;;6185489;23;20009;-81
2020/12/29 07:21:28;;;;;;;8.20;3.88;;;12.50;99.90;;;;;;6185703;23;20074;-81
2020/12/29 07:23:55;;;;;;;8.93;4.10;;;12.70;99.90;;;;;;6212496;23;20008;-82
2020/12/29 07:26:22;;;;;;;8.52;3.90;;;12.90;99.90;;;;;;6185596;23;20338;-82
2020/12/29 07:28:54;;;;;;;8.95;4.60;;;13.00;99.60;;;;;;6185029;23;20023;-82
2020/12/29 07:31:29;;;;;;;8.77;4.18;;;13.20;98.40;;;;;;6212074;23;20011;-82
2020/12/29 07:34:00;;;;;;;8.75;4.18;;;13.20;99.60;;;;;;6185644;23;20004;-81
2020/12/29 07:36:25;;;;;;;;;;;13.10;99.90;;;;;;6214184;23;19997;-82
2020/12/29 07:38:51;;;;;;;9.32;4.72;;;13.30;99.90;;;;;;6213901;23;20230;-82
2020/12/29 07:41:18;;;;;;;9.73;4.32;;;13.60;99.90;;;;;;6186914;23;20473;-82
2020/12/29 07:43:46;;;;;;;6.63;4.00;;;14.00;98.90;;;;;;6186659;23;20020;-82
2020/12/29 07:46:12;;;;;;;9.10;3.92;;;13.80;98.30;;;;;;6187223;23;20008;-83
2020/12/29 07:48:38;;;;;;;7.35;3.75;;;13.70;98.20;;;;;;6213533;23;20585;-81
2020/12/29 07:51:05;;;;;;;12.57;6.05;;;13.30;98.60;;;;;;6186988;23;19997;-80
2020/12/29 07:53:31;;;;;;;15.40;8.02;;;12.80;99.10;;;;;;6213819;23;20054;-83
2020/12/29 07:55:58;;;;;;;12.25;7.47;;;11.50;99.90;;;;;;6187179;23;20007;-82
2020/12/29 07:58:24;;;;;;;17.27;6.97;;;11.50;99.90;;;;;;6213168;23;20007;-81
2020/12/29 08:00:50;;;;;;;14.30;8.10;;;11.40;99.90;;;;;;6186792;23;20008;-81
2020/12/29 08:03:18;;;;;;;18.98;8.30;;;11.10;99.90;;;;;;6186637;23;20004;-82
2020/12/29 08:05:44;;;;;;;14.95;8.98;;;11.20;99.90;;;;;;6213642;23;20001;-81
2020/12/29 08:08:11;;;;;;;15.77;9.10;;;11.50;99.90;;;;;;6213449;23;20123;-82
2020/12/29 08:10:41;;;;;;;15.40;8.48;;;11.60;99.90;;;;;;6213468;23;20004;-83
2020/12/29 08:13:07;;;;;;;16.92;8.55;;;11.40;99.90;;;;;;6186532;23;20091;-83
2020/12/29 08:15:41;;;;;;;13.55;8.00;;;11.30;99.90;;;;;;6187250;23;20004;-84
2020/12/29 08:18:14;;;;;;;15.98;8.55;;;11.40;99.90;;;;;;6213139;23;20059;-85
2020/12/29 08:21:01;;;;;;;14.82;8.73;;;11.50;99.90;;;;;;6187089;23;20013;-84
2020/12/29 08:23:28;;;;;;;14.20;9.02;;;11.50;99.90;;;;;;6186705;23;20445;-83
2020/12/29 08:26:00;;;;;;;17.65;9.73;;;11.40;99.90;;;;;;6213672;23;20004;-82
2020/12/29 08:28:28;;;;;;;17.80;9.15;;;11.50;99.90;;;;;;6186534;23;20004;-83
2020/12/29 08:30:56;;;;;;;20.65;9.52;;;11.60;99.90;;;;;;6212719;23;20013;-82
2020/12/29 08:33:23;;;;;;;21.27;10.32;;;11.60;99.90;;;;;;6212742;23;20012;-82
2020/12/29 08:35:53;;;;;;;21.25;9.68;;;11.70;99.90;;;;;;6213601;23;20444;-81
2020/12/29 08:38:31;;;;;;;21.75;10.75;;;11.70;99.90;;;;;;6213268;23;20017;-83
2020/12/29 08:41:08;;;;;;;13.35;7.22;;;11.80;99.90;;;;;;6186000;23;20318;-81
2020/12/29 08:43:48;;;;;;;14.50;8.20;;;11.90;99.90;;;;;;6185181;23;20016;-82
2020/12/29 08:46:16;;;;;;;15.05;9.13;;;12.10;99.90;;;;;;6211896;23;20009;-83
2020/12/29 08:48:59;;;;;;;16.20;9.60;;;12.00;99.90;;;;;;6212473;23;20036;-83
2020/12/29 08:51:26;;;;;;;14.07;8.35;;;12.10;99.90;;;;;;6213437;23;20340;-83
2020/12/29 08:53:53;;;;;;;13.90;8.20;;;12.10;99.90;;;;;;6213166;23;20016;-83
2020/12/29 08:56:26;;;;;;;14.38;8.32;;;12.20;99.90;;;;;;6214798;23;20008;-83
2020/12/29 08:58:55;;;;;;;17.90;10.65;;;12.30;99.90;;;;;;6188154;23;20008;-83
2020/12/29 09:01:35;;;;;;;16.95;9.75;;;12.40;99.90;;;;;;6188862;23;20070;-83
2020/12/29 09:04:24;;;;;;;20.65;10.27;;;12.40;99.90;;;;;;6188488;23;20066;-83
2020/12/29 09:06:59;;;;;;;14.63;8.10;;;12.40;99.90;;;;;;6188298;23;20008;-81
2020/12/29 09:09:25;;;;;;;14.63;8.25;;;12.70;99.90;;;;;;6215238;23;20039;-82
2020/12/29 09:12:12;;;;;;;13.05;7.55;;;12.70;99.90;;;;;;6215584;23;20367;-82
2020/12/29 09:14:59;;;;;;;11.07;6.90;;;12.70;99.90;;;;;;6188528;23;20023;-83
2020/12/29 09:17:26;;;;;;;10.93;6.00;;;12.80;99.90;;;;;;6173960;23;20004;-82
2020/12/29 09:20:11;;;;;;;11.27;6.28;;;12.90;99.50;;;;;;6215037;23;20004;-82
2020/12/29 09:22:57;;;;;;;6.93;3.63;;;13.10;97.60;;;;;;6214829;23;20012;-84
2020/12/29 09:25:43;;;;;;;7.63;3.72;;;13.30;95.00;;;;;;6187980;23;20539;-83
2020/12/29 09:28:29;;;;;;;12.02;5.45;;;13.40;94.20;;;;;;6188200;23;20021;-85
2020/12/29 09:31:01;;;;;;;10.23;5.63;;;13.40;95.30;;;;;;6214802;23;19997;-83
2020/12/29 09:33:29;;;;;;;8.82;3.63;;;13.40;93.90;;;;;;6187774;23;20360;-82
2020/12/29 09:35:58;;;;;;;7.70;3.22;;;13.50;92.50;;;;;;6214744;23;20000;-82
2020/12/29 09:38:24;;;;;;;6.20;2.90;;;13.60;91.70;;;;;;6214614;23;20070;-84
2020/12/29 09:40:50;;;;;;;7.05;3.75;;;13.70;91.30;;;;;;6214514;23;20000;-83
2020/12/29 09:43:17;;;;;;;6.20;3.15;;;13.60;91.20;;;;;;6188405;23;20034;-83
2020/12/29 09:45:45;;;;;;;16.90;8.43;;;13.80;91.30;;;;;;6187943;23;20005;-82
2020/12/29 09:48:12;;;;;;;22.02;10.18;;;13.50;94.70;;;;;;6188106;23;20005;-83
2020/12/29 09:50:38;;;;;;;17.42;9.25;;;13.00;98.90;;;;;;6214688;23;20054;-81
2020/12/29 09:53:04;;;;;;;14.07;7.85;;;12.80;99.90;;;;;;6188123;23;20008;-83
2020/12/29 09:55:29;;;;;;;18.50;7.57;;;12.90;98.80;;;;;;6188093;23;20001;-83
2020/12/29 09:57:56;;;;;;;9.95;6.50;;;13.00;98.60;;;;;;6214673;23;20019;-83
2020/12/29 10:00:22;;;;;;;10.82;5.00;;;13.10;97.70;;;;;;6213583;23;20000;-82
2020/12/29 10:02:47;;;;;;;10.13;3.50;;;13.30;96.30;;;;;;6188217;23;20430;-82
2020/12/29 10:05:13;;;;;;;4.45;2.90;;;13.50;93.90;;;;;;6187405;23;20016;-82
2020/12/29 10:07:39;;;;;;;15.07;5.80;;;13.60;92.80;;;;;;6187776;23;20005;-81
2020/12/29 10:10:05;;;;;;;13.57;7.35;;;13.70;94.10;;;;;;6214138;23;20423;-80
2020/12/29 10:12:30;;;;;;;18.48;9.82;;;13.40;96.90;;;;;;6215079;23;20012;-81
2020/12/29 10:14:57;;;;;;;19.15;8.88;;;13.70;99.90;;;;;;6214286;23;20450;-82
2020/12/29 10:17:23;;;;;;;10.57;5.38;;;14.20;99.80;;;;;;6214630;23;20004;-83
2020/12/29 10:19:49;;;;;;;9.93;6.30;;;14.10;95.70;;;;;;6186321;23;20035;-84
2020/12/29 10:22:15;;;;;;;14.77;6.50;;;14.50;95.30;;;;;;6214545;23;20017;-84
2020/12/29 10:24:41;;;;;;;9.32;5.88;;;14.20;93.30;;;;;;6187959;23;20001;-84
2020/12/29 10:27:06;;;;;;;10.20;6.13;;;13.90;93.80;;;;;;6187994;23;20089;-84
2020/12/29 10:29:32;;;;;;;12.98;7.43;;;13.80;93.70;;;;;;6187575;23;20335;-83
2020/12/29 10:31:58;;;;;;;14.05;6.28;;;13.70;94.70;;;;;;6214432;23;20062;-83
2020/12/29 10:34:24;;;;;;;7.45;4.40;;;13.70;94.80;;;;;;6187868;23;20015;-86
2020/12/29 10:36:49;;;;;;;10.23;5.68;;;13.80;92.50;;;;;;6214140;23;20383;-85
2020/12/29 10:39:15;;;;;;;9.73;5.95;;;13.80;93.50;;;;;;6214230;23;20008;-84
2020/12/29 10:41:41;;;;;;;13.93;7.38;;;13.90;93.80;;;;;;6187758;23;20009;-84
2020/12/29 10:44:08;;;;;;;13.93;7.43;;;13.80;94.90;;;;;;6187651;23;20015;-82
2020/12/29 10:46:34;;;;;;;9.07;3.85;;;13.70;95.10;;;;;;6213958;23;20059;-81
2020/12/29 10:49:00;;;;;;;8.85;3.38;;;13.90;91.30;;;;;;6213325;23;20008;-83
2020/12/29 10:51:26;;;;;;;5.32;3.38;;;14.10;89.90;;;;;;6214115;23;20135;-83
2020/12/29 10:53:53;;;;;;;5.13;3.28;;;14.20;88.90;;;;;;6187882;23;20015;-81
2020/12/29 10:56:20;;;;;;;4.05;2.40;;;14.40;86.00;;;;;;6187599;23;20442;-83
2020/12/29 10:58:46;;;;;;;3.78;2.80;;;14.60;83.70;;;;;;6210157;23;20009;-84
2020/12/29 11:01:14;;;;;;;5.55;2.55;;;14.60;82.90;;;;;;6212668;23;20088;-85
2020/12/29 11:03:39;;;;;;;6.22;2.65;;;14.60;81.70;;;;;;6212741;23;20435;-81
2020/12/29 11:06:13;;;;;;;4.10;2.70;;;14.70;80.20;;;;;;6214374;23;20075;-85
2020/12/29 11:08:38;;;;;;;6.50;3.20;;;14.70;80.60;;;;;;6214251;23;20504;-84
2020/12/29 11:11:04;;;;;;;6.35;2.80;;;14.90;79.50;;;;;;6213583;23;20472;-83
2020/12/29 11:13:30;;;;;;;5.35;3.00;;;15.00;78.70;;;;;;6213003;23;20016;-84
2020/12/29 11:15:55;;;;;;;5.40;2.75;;;15.00;77.50;;;;;;6187116;23;20431;-84
2020/12/29 11:18:21;;;;;;;5.90;3.00;;;15.10;77.40;;;;;;6186899;23;20004;-83
2020/12/29 11:21:11;;;;;;;16.52;7.53;;;15.20;77.50;;;;;;6169694;23;20443;-81
2020/12/29 11:24:20;;;;;;;21.63;9.85;;;14.90;84.10;;;;;;6106503;23;20319;-85
2020/12/29 11:26:53;;;;;;;22.02;11.77;;;14.80;88.50;;;;;;6127970;23;20340;-86
2020/12/29 11:29:19;;;;;;;24.80;13.55;;;14.70;90.30;;;;;;6152449;23;20001;-83
2020/12/29 11:31:54;;;;;;;26.65;14.55;;;14.60;90.60;;;;;;6151974;23;20016;-83
2020/12/29 11:34:20;;;;;;;25.42;13.98;;;14.60;90.60;;;;;;6128208;23;20371;-84
2020/12/29 11:36:48;;;;;;;28.48;14.07;;;14.60;89.80;;;;;;6127909;23;20428;-83
2020/12/29 11:39:35;;;;;;;25.45;14.30;;;14.70;89.20;;;;;;6154716;23;20002;-84
2020/12/29 11:42:01;;;;;;;31.25;15.00;;;14.70;89.20;;;;;;6128044;23;20029;-83
2020/12/29 11:44:26;;;;;;;24.80;15.93;;;14.70;89.90;;;;;;6127465;23;20008;-83
2020/12/29 11:46:58;;;;;;;24.00;13.48;;;14.60;89.90;;;;;;6127942;23;20096;-85
2020/12/29 11:49:24;;;;;;;21.58;11.05;;;14.50;90.10;;;;;;6154250;23;20001;-84
2020/12/29 11:51:50;;;;;;;19.52;11.07;;;14.50;90.00;;;;;;6128058;23;20032;-84
2020/12/29 11:54:16;;;;;;;16.67;10.90;;;14.60;89.90;;;;;;6128084;23;20023;-85
2020/12/29 11:56:42;;;;;;;15.20;9.63;;;14.60;89.20;;;;;;6153946;23;20005;-84
2020/12/29 11:59:07;;;;;;;15.88;9.45;;;14.70;89.10;;;;;;6127567;23;20061;-84
2020/12/29 12:01:36;;;;;;;16.98;9.93;;;14.70;87.70;;;;;;6127373;23;20063;-83
2020/12/29 12:04:02;;;;;;;18.13;9.30;;;14.70;87.90;;;;;;6154556;23;20006;-83
2020/12/29 12:06:32;;;;;;;14.23;9.57;;;14.80;87.20;;;;;;6153650;23;20115;-83
2020/12/29 12:08:58;;;;;;;17.02;8.77;;;14.90;86.70;;;;;;6154249;23;20005;-86
2020/12/29 12:11:27;;;;;;;15.05;9.63;;;14.90;86.70;;;;;;6154107;23;20006;-83
2020/12/29 12:13:54;;;;;;;21.35;11.02;;;15.00;86.10;;;;;;6153585;23;20011;-85
2020/12/29 12:16:20;;;;;;;20.75;11.13;;;14.90;87.50;;;;;;6152275;23;20001;-82
2020/12/29 12:18:46;;;;;;;25.08;12.05;;;14.90;87.90;;;;;;6125499;23;20012;-84
2020/12/29 12:21:11;;;;;;;24.02;12.63;;;14.70;88.00;;;;;;6153138;23;20017;-84
2020/12/29 12:23:40;;;;;;;23.77;14.10;;;14.70;90.00;;;;;;6151986;23;20386;-83
2020/12/29 12:26:06;;;;;;;26.73;14.85;;;14.60;90.40;;;;;;6126796;23;20383;-83
2020/12/29 12:28:32;;;;;;;23.90;13.55;;;14.60;90.70;;;;;;6153701;23;20029;-84
2020/12/29 12:30:58;;;;;;;27.85;13.57;;;14.40;91.40;;;;;;6155548;23;20009;-85
2020/12/29 12:33:24;;;;;;;21.17;13.48;;;14.50;91.60;;;;;;6154055;23;20022;-82
2020/12/29 12:35:49;;;;;;;17.88;10.02;;;14.50;92.00;;;;;;6155000;23;20416;-85
2020/12/29 12:40:58;;;;;;;20.50;9.75;;;14.60;91.20;;;;;;6169906;23;20436;-86
2020/12/29 12:44:05;;;;;;;18.15;10.52;;;14.50;91.30;;;;;;6129209;23;20005;-82
2020/12/29 12:47:26;;;;;;;19.23;8.93;;;14.60;90.90;;;;;;6073086;23;20001;-83
2020/12/29 12:49:57;;;;;;;15.88;7.72;;;14.60;91.30;;;;;;6155521;23;20001;-84